PWSweather.com
Personal Weather Stations
Station Observations
MBORO100
Brandywood , Murfreesboro, TN 37130

Brandywood Murfreesboro, TN 37130

Lat: 35.908093, Lon: -86.31352

Elevation: 690

Station Type: Davis

Latest ConditionsUpdated 3:30:01 AM CST Thursday, Dec 12, 2019
Currently Today's Max Today's Min Today's Average
Temperature 28.7°F-1.8°C 29.7°F-1.3°C 27.9°F-2.3°C 28.8°F-1.8°C
Dew Point 26.9°F-2.8°C 28.2°F-2.1°C 26.1°F-3.3°C 27.1°F-2.7°C
Winds Calm Calm Calm -Calm - - Calm Calm
Wind Gusts -- -- - -
Humidity 93% 94% 93% 93%
Pressure 30.54 in1034.2 mb 30.56 in1034.9 mb 30.54 in1034.2 mb -
Hour Temp Dew Point Humidity Winds Wind Gusts Pressure Precip Precip Rate Daily Precip Total
03:30 AM 28.7°F-1.8°C 26.9°F-2.8°C 93% Calm Calm -- 30.54 in1034.2 mb - 0.00 in0.0 mm 0.00 in0.0 mm
03:25 AM 28.8°F-1.8°C 27.0°F-2.8°C 93% Calm Calm -- 30.54 in1034.2 mb - 0.00 in0.0 mm 0.00 in0.0 mm
03:20 AM 28.9°F-1.7°C 27.1°F-2.7°C 93% Calm Calm -- 30.54 in1034.2 mb - 0.00 in0.0 mm 0.00 in0.0 mm
03:15 AM 29.1°F-1.6°C 27.3°F-2.6°C 93% Calm Calm -- 30.54 in1034.2 mb - 0.00 in0.0 mm 0.00 in0.0 mm
03:10 AM 29.2°F-1.6°C 27.4°F-2.6°C 93% Calm Calm -- 30.54 in1034.2 mb - 0.00 in0.0 mm 0.00 in0.0 mm
03:00 AM 29.0°F-1.7°C 27.5°F-2.5°C 94% Calm Calm -- 30.54 in1034.2 mb - 0.00 in0.0 mm 0.00 in0.0 mm
02:55 AM 28.7°F-1.8°C 27.2°F-2.7°C 94% Calm Calm -- 30.55 in1034.5 mb - 0.00 in0.0 mm 0.00 in0.0 mm
02:50 AM 28.1°F-2.2°C 26.6°F-3.0°C 94% Calm Calm -- 30.55 in1034.5 mb - 0.00 in0.0 mm 0.00 in0.0 mm
02:45 AM 27.9°F-2.3°C 26.4°F-3.1°C 94% Calm Calm -- 30.55 in1034.5 mb - 0.00 in0.0 mm 0.00 in0.0 mm
02:40 AM 27.9°F-2.3°C 26.1°F-3.3°C 93% Calm Calm -- 30.55 in1034.5 mb - 0.00 in0.0 mm 0.00 in0.0 mm
02:35 AM 28.0°F-2.2°C 26.2°F-3.2°C 93% Calm Calm -- 30.55 in1034.5 mb - 0.00 in0.0 mm 0.00 in0.0 mm
02:30 AM 28.0°F-2.2°C 26.3°F-3.2°C 93% Calm Calm -- 30.55 in1034.5 mb - 0.00 in0.0 mm 0.00 in0.0 mm
02:25 AM 28.1°F-2.2°C 26.3°F-3.2°C 93% Calm Calm -- 30.55 in1034.5 mb - 0.00 in0.0 mm 0.00 in0.0 mm
02:20 AM 28.3°F-2.1°C 26.5°F-3.1°C 93% Calm Calm -- 30.55 in1034.5 mb - 0.00 in0.0 mm 0.00 in0.0 mm
02:15 AM 28.4°F-2.0°C 26.6°F-3.0°C 93% Calm Calm -- 30.55 in1034.5 mb - 0.00 in0.0 mm 0.00 in0.0 mm
02:10 AM 28.4°F-2.0°C 26.6°F-3.0°C 93% Calm Calm -- 30.55 in1034.5 mb - 0.00 in0.0 mm 0.00 in0.0 mm
02:00 AM 28.7°F-1.8°C 26.9°F-2.8°C 93% Calm Calm -- 30.55 in1034.5 mb - 0.00 in0.0 mm 0.00 in0.0 mm
01:55 AM 28.7°F-1.8°C 26.9°F-2.8°C 93% Calm Calm -- 30.54 in1034.2 mb - 0.00 in0.0 mm 0.00 in0.0 mm
01:50 AM 28.8°F-1.8°C 27.0°F-2.8°C 93% Calm Calm -- 30.55 in1034.5 mb - 0.00 in0.0 mm 0.00 in0.0 mm
01:45 AM 28.8°F-1.8°C 27.1°F-2.7°C 93% Calm Calm -- 30.55 in1034.5 mb - 0.00 in0.0 mm 0.00 in0.0 mm
01:40 AM 28.8°F-1.8°C 27.0°F-2.8°C 93% Calm Calm -- 30.55 in1034.5 mb - 0.00 in0.0 mm 0.00 in0.0 mm
01:35 AM 28.9°F-1.7°C 27.1°F-2.7°C 93% Calm Calm -- 30.55 in1034.5 mb - 0.00 in0.0 mm 0.00 in0.0 mm
01:30 AM 28.9°F-1.7°C 27.1°F-2.7°C 93% Calm Calm -- 30.55 in1034.5 mb - 0.00 in0.0 mm 0.00 in0.0 mm
01:25 AM 29.0°F-1.7°C 27.2°F-2.7°C 93% Calm Calm -- 30.55 in1034.5 mb - 0.00 in0.0 mm 0.00 in0.0 mm
01:20 AM 29.2°F-1.6°C 27.4°F-2.6°C 93% Calm Calm -- 30.55 in1034.5 mb - 0.00 in0.0 mm 0.00 in0.0 mm
01:15 AM 29.5°F-1.4°C 27.8°F-2.3°C 93% Calm Calm -- 30.55 in1034.5 mb - 0.00 in0.0 mm 0.00 in0.0 mm
01:10 AM 29.7°F-1.3°C 28.2°F-2.1°C 94% Calm Calm -- 30.55 in1034.5 mb - 0.00 in0.0 mm 0.00 in0.0 mm
01:00 AM 29.2°F-1.6°C 27.6°F-2.4°C 94% Calm Calm -- 30.55 in1034.5 mb - 0.00 in0.0 mm 0.00 in0.0 mm
12:55 AM 29.1°F-1.6°C 27.6°F-2.4°C 94% Calm Calm -- 30.55 in1034.5 mb - 0.00 in0.0 mm 0.00 in0.0 mm
12:50 AM 29.1°F-1.6°C 27.5°F-2.5°C 94% Calm Calm -- 30.56 in1034.9 mb - 0.00 in0.0 mm 0.00 in0.0 mm
12:45 AM 29.0°F-1.7°C 27.5°F-2.5°C 94% Calm Calm -- 30.55 in1034.5 mb - 0.00 in0.0 mm 0.00 in0.0 mm
12:40 AM 29.0°F-1.7°C 27.5°F-2.5°C 94% Calm Calm -- 30.55 in1034.5 mb - 0.00 in0.0 mm 0.00 in0.0 mm
12:35 AM 28.8°F-1.8°C 27.0°F-2.8°C 93% Calm Calm -- 30.55 in1034.5 mb - 0.00 in0.0 mm 0.00 in0.0 mm
12:30 AM 28.8°F-1.8°C 27.0°F-2.8°C 93% Calm Calm -- 30.55 in1034.5 mb - 0.00 in0.0 mm 0.00 in0.0 mm
12:25 AM 28.9°F-1.7°C 27.1°F-2.7°C 93% Calm Calm -- 30.55 in1034.5 mb - 0.00 in0.0 mm 0.00 in0.0 mm
12:20 AM 29.0°F-1.7°C 27.2°F-2.7°C 93% Calm Calm -- 30.55 in1034.5 mb - 0.00 in0.0 mm 0.00 in0.0 mm
12:15 AM 29.1°F-1.6°C 27.3°F-2.6°C 93% Calm Calm -- 30.55 in1034.5 mb - 0.00 in0.0 mm 0.00 in0.0 mm
12:10 AM 29.2°F-1.6°C 27.4°F-2.6°C 93% Calm Calm -- 30.55 in1034.5 mb - 0.00 in0.0 mm 0.00 in0.0 mm
12:00 AM 29.5°F-1.4°C 27.7°F-2.4°C 93% Calm Calm -- 30.55 in1034.5 mb - 0.00 in0.0 mm 0.00 in0.0 mm